sensor_id;sensor_type;location;lat;lon;timestamp;pressure;altitude;pressure_sealevel;temperature;humidity
48053;BME280;33824;51.600;5.718;2023-05-12T00:01:06;101401.88;;;13.50;100.00
48053;BME280;33824;51.600;5.718;2023-05-12T00:03:31;101402.09;;;13.40;100.00
48053;BME280;33824;51.600;5.718;2023-05-12T00:05:59;101399.31;;;13.34;100.00
48053;BME280;33824;51.600;5.718;2023-05-12T00:08:28;101397.69;;;13.25;100.00
48053;BME280;33824;51.600;5.718;2023-05-12T00:10:53;101390.38;;;13.19;100.00
48053;BME280;33824;51.600;5.718;2023-05-12T00:13:19;101399.25;;;13.19;100.00
48053;BME280;33824;51.600;5.718;2023-05-12T00:15:49;101401.38;;;13.24;100.00
48053;BME280;33824;51.600;5.718;2023-05-12T00:18:15;101396.03;;;13.24;100.00
48053;BME280;33824;51.600;5.718;2023-05-12T00:20:40;101395.19;;;13.23;100.00
48053;BME280;33824;51.600;5.718;2023-05-12T00:23:06;101399.03;;;13.21;100.00
48053;BME280;33824;51.600;5.718;2023-05-12T00:25:32;101395.53;;;13.20;100.00
48053;BME280;33824;51.600;5.718;2023-05-12T00:27:58;101392.25;;;13.10;100.00
48053;BME280;33824;51.600;5.718;2023-05-12T00:30:24;101390.41;;;13.11;100.00
48053;BME280;33824;51.600;5.718;2023-05-12T00:32:49;101395.44;;;13.06;100.00
48053;BME280;33824;51.600;5.718;2023-05-12T00:35:16;101393.63;;;12.98;100.00
48053;BME280;33824;51.600;5.718;2023-05-12T00:37:41;101396.16;;;12.99;100.00
48053;BME280;33824;51.600;5.718;2023-05-12T00:40:08;101392.50;;;12.92;100.00
48053;BME280;33824;51.600;5.718;2023-05-12T00:42:34;101397.50;;;12.95;100.00
48053;BME280;33824;51.600;5.718;2023-05-12T00:45:01;101394.34;;;12.92;100.00
48053;BME280;33824;51.600;5.718;2023-05-12T00:47:27;101387.78;;;12.94;100.00
48053;BME280;33824;51.600;5.718;2023-05-12T00:49:53;101389.63;;;12.94;100.00
48053;BME280;33824;51.600;5.718;2023-05-12T00:52:19;101386.31;;;12.92;100.00
48053;BME280;33824;51.600;5.718;2023-05-12T00:54:45;101379.28;;;12.91;100.00
48053;BME280;33824;51.600;5.718;2023-05-12T00:57:12;101382.69;;;12.85;100.00
48053;BME280;33824;51.600;5.718;2023-05-12T00:59:38;101381.38;;;12.81;100.00
48053;BME280;33824;51.600;5.718;2023-05-12T01:02:03;101379.53;;;12.81;100.00
48053;BME280;33824;51.600;5.718;2023-05-12T01:04:30;101381.88;;;12.76;100.00
48053;BME280;33824;51.600;5.718;2023-05-12T01:07:05;101376.56;;;12.68;100.00
48053;BME280;33824;51.600;5.718;2023-05-12T01:09:35;101374.72;;;12.69;100.00
48053;BME280;33824;51.600;5.718;2023-05-12T01:12:00;101377.44;;;12.61;100.00
48053;BME280;33824;51.600;5.718;2023-05-12T01:14:26;101377.44;;;12.61;100.00
48053;BME280;33824;51.600;5.718;2023-05-12T01:16:54;101385.34;;;12.54;100.00
48053;BME280;33824;51.600;5.718;2023-05-12T01:19:33;101377.84;;;12.41;100.00
48053;BME280;33824;51.600;5.718;2023-05-12T01:22:02;101382.47;;;12.56;100.00
48053;BME280;33824;51.600;5.718;2023-05-12T01:24:29;101370.63;;;12.50;100.00
48053;BME280;33824;51.600;5.718;2023-05-12T01:26:57;101368.44;;;12.54;100.00
48053;BME280;33824;51.600;5.718;2023-05-12T01:29:24;101374.16;;;12.50;100.00
48053;BME280;33824;51.600;5.718;2023-05-12T01:31:50;101368.97;;;12.49;100.00
48053;BME280;33824;51.600;5.718;2023-05-12T01:34:16;101366.81;;;12.44;100.00
48053;BME280;33824;51.600;5.718;2023-05-12T01:36:43;101358.47;;;12.39;100.00
48053;BME280;33824;51.600;5.718;2023-05-12T01:39:09;101361.16;;;12.39;100.00
48053;BME280;33824;51.600;5.718;2023-05-12T01:41:34;101360.47;;;12.37;100.00
48053;BME280;33824;51.600;5.718;2023-05-12T01:44:00;101358.47;;;12.39;100.00
48053;BME280;33824;51.600;5.718;2023-05-12T01:46:26;101351.47;;;12.38;100.00
48053;BME280;33824;51.600;5.718;2023-05-12T01:48:51;101358.66;;;12.38;100.00
48053;BME280;33824;51.600;5.718;2023-05-12T01:51:17;101352.78;;;12.42;100.00
48053;BME280;33824;51.600;5.718;2023-05-12T01:53:42;101353.78;;;12.41;100.00
48053;BME280;33824;51.600;5.718;2023-05-12T01:56:08;101352.31;;;12.39;100.00
48053;BME280;33824;51.600;5.718;2023-05-12T01:58:33;101352.94;;;12.41;100.00
48053;BME280;33824;51.600;5.718;2023-05-12T02:00:59;101343.56;;;12.45;100.00
48053;BME280;33824;51.600;5.718;2023-05-12T02:03:25;101352.75;;;12.50;100.00
48053;BME280;33824;51.600;5.718;2023-05-12T02:05:50;101345.38;;;12.52;100.00
48053;BME280;33824;51.600;5.718;2023-05-12T02:08:16;101341.19;;;12.58;100.00
48053;BME280;33824;51.600;5.718;2023-05-12T02:10:41;101347.69;;;12.56;100.00
48053;BME280;33824;51.600;5.718;2023-05-12T02:13:07;101344.38;;;12.54;100.00
48053;BME280;33824;51.600;5.718;2023-05-12T02:15:33;101344.38;;;12.54;100.00
48053;BME280;33824;51.600;5.718;2023-05-12T02:17:58;101335.53;;;12.45;100.00
48053;BME280;33824;51.600;5.718;2023-05-12T02:20:24;101337.59;;;12.35;100.00
48053;BME280;33824;51.600;5.718;2023-05-12T02:22:50;101336.63;;;12.28;100.00
48053;BME280;33824;51.600;5.718;2023-05-12T02:25:15;101341.78;;;12.29;100.00
48053;BME280;33824;51.600;5.718;2023-05-12T02:27:41;101332.44;;;12.25;100.00
48053;BME280;33824;51.600;5.718;2023-05-12T02:30:07;101325.75;;;12.29;100.00
48053;BME280;33824;51.600;5.718;2023-05-12T02:32:33;101327.44;;;12.22;100.00
48053;BME280;33824;51.600;5.718;2023-05-12T02:34:59;101326.28;;;12.25;100.00
48053;BME280;33824;51.600;5.718;2023-05-12T02:37:25;101316.63;;;12.16;100.00
48053;BME280;33824;51.600;5.718;2023-05-12T02:39:50;101313.94;;;12.16;100.00
48053;BME280;33824;51.600;5.718;2023-05-12T02:42:16;101316.78;;;12.14;100.00
48053;BME280;33824;51.600;5.718;2023-05-12T02:44:42;101310.28;;;12.17;100.00
48053;BME280;33824;51.600;5.718;2023-05-12T02:47:07;101313.94;;;12.16;100.00
48053;BME280;33824;51.600;5.718;2023-05-12T02:49:33;101316.13;;;12.12;100.00
48053;BME280;33824;51.600;5.718;2023-05-12T02:51:58;101311.97;;;12.10;100.00
48053;BME280;33824;51.600;5.718;2023-05-12T02:54:24;101302.28;;;12.09;100.00
48053;BME280;33824;51.600;5.718;2023-05-12T02:56:49;101308.47;;;12.09;100.00
48053;BME280;33824;51.600;5.718;2023-05-12T02:59:15;101310.81;;;12.04;100.00
48053;BME280;33824;51.600;5.718;2023-05-12T03:01:40;101303.97;;;12.01;100.00
48053;BME280;33824;51.600;5.718;2023-05-12T03:04:06;101307.50;;;12.02;100.00
48053;BME280;33824;51.600;5.718;2023-05-12T03:06:31;101303.16;;;12.01;100.00
48053;BME280;33824;51.600;5.718;2023-05-12T03:08:57;101303.31;;;11.99;100.00
48053;BME280;33824;51.600;5.718;2023-05-12T03:11:24;101288.44;;;12.05;100.00
48053;BME280;33824;51.600;5.718;2023-05-12T03:13:50;101305.78;;;12.09;100.00
48053;BME280;33824;51.600;5.718;2023-05-12T03:16:15;101289.59;;;12.02;100.00
48053;BME280;33824;51.600;5.718;2023-05-12T03:18:43;101303.97;;;12.01;100.00
48053;BME280;33824;51.600;5.718;2023-05-12T03:21:08;101289.41;;;12.12;100.00
48053;BME280;33824;51.600;5.718;2023-05-12T03:23:34;101292.25;;;12.11;100.00
48053;BME280;33824;51.600;5.718;2023-05-12T03:25:59;101284.56;;;12.08;100.00
48053;BME280;33824;51.600;5.718;2023-05-12T03:28:25;101287.56;;;12.13;100.00
48053;BME280;33824;51.600;5.718;2023-05-12T03:30:50;101275.69;;;12.15;100.00
48053;BME280;33824;51.600;5.718;2023-05-12T03:33:16;101279.53;;;12.21;100.00
48053;BME280;33824;51.600;5.718;2023-05-12T03:35:41;101286.03;;;12.18;100.00
48053;BME280;33824;51.600;5.718;2023-05-12T03:38:07;101268.34;;;12.17;100.00
48053;BME280;33824;51.600;5.718;2023-05-12T03:40:32;101273.16;;;12.14;100.00
48053;BME280;33824;51.600;5.718;2023-05-12T03:42:58;101269.78;;;12.28;100.00
48053;BME280;33824;51.600;5.718;2023-05-12T03:45:24;101274.31;;;12.27;100.00
48053;BME280;33824;51.600;5.718;2023-05-12T03:47:49;101271.63;;;12.27;100.00
48053;BME280;33824;51.600;5.718;2023-05-12T03:50:15;101271.28;;;12.30;100.00
48053;BME280;33824;51.600;5.718;2023-05-12T03:52:40;101273.06;;;12.38;100.00
48053;BME280;33824;51.600;5.718;2023-05-12T03:55:06;101276.41;;;12.40;100.00
48053;BME280;33824;51.600;5.718;2023-05-12T03:57:32;101268.41;;;12.40;100.00
48053;BME280;33824;51.600;5.718;2023-05-12T03:59:59;101270.88;;;12.41;100.00
48053;BME280;33824;51.600;5.718;2023-05-12T04:02:25;101275.22;;;12.42;100.00
48053;BME280;33824;51.600;5.718;2023-05-12T04:04:51;101271.72;;;12.42;100.00
48053;BME280;33824;51.600;5.718;2023-05-12T04:07:16;101272.22;;;12.37;100.00
48053;BME280;33824;51.600;5.718;2023-05-12T04:09:42;101267.03;;;12.44;100.00
48053;BME280;33824;51.600;5.718;2023-05-12T04:12:08;101266.00;;;12.45;100.00
48053;BME280;33824;51.600;5.718;2023-05-12T04:14:34;101272.16;;;12.54;100.00
48053;BME280;33824;51.600;5.718;2023-05-12T04:17:00;101270.97;;;12.56;100.00
48053;BME280;33824;51.600;5.718;2023-05-12T04:19:25;101277.81;;;12.59;100.00
48053;BME280;33824;51.600;5.718;2023-05-12T04:21:51;101275.31;;;12.57;100.00
48053;BME280;33824;51.600;5.718;2023-05-12T04:24:16;101276.31;;;12.56;100.00
48053;BME280;33824;51.600;5.718;2023-05-12T04:26:42;101272.31;;;12.52;100.00
48053;BME280;33824;51.600;5.718;2023-05-12T04:29:08;101273.94;;;12.61;100.00
48053;BME280;33824;51.600;5.718;2023-05-12T04:31:33;101274.06;;;12.68;100.00
48053;BME280;33824;51.600;5.718;2023-05-12T04:33:59;101274.53;;;12.71;100.00
48053;BME280;33824;51.600;5.718;2023-05-12T04:36:25;101274.22;;;12.74;100.00
48053;BME280;33824;51.600;5.718;2023-05-12T04:38:51;101277.34;;;12.78;100.00
48053;BME280;33824;51.600;5.718;2023-05-12T04:41:16;101279.00;;;12.79;100.00
48053;BME280;33824;51.600;5.718;2023-05-12T04:43:42;101270.66;;;12.82;100.00
48053;BME280;33824;51.600;5.718;2023-05-12T04:46:07;101281.47;;;12.88;100.00
48053;BME280;33824;51.600;5.718;2023-05-12T04:48:33;101270.22;;;12.93;100.00
48053;BME280;33824;51.600;5.718;2023-05-12T04:50:59;101284.09;;;12.96;100.00
48053;BME280;33824;51.600;5.718;2023-05-12T04:53:26;101278.84;;;13.03;100.00
48053;BME280;33824;51.600;5.718;2023-05-12T04:55:51;101283.00;;;13.06;100.00
48053;BME280;33824;51.600;5.718;2023-05-12T04:58:17;101283.56;;;13.01;100.00
48053;BME280;33824;51.600;5.718;2023-05-12T05:00:42;101285.03;;;13.04;100.00
48053;BME280;33824;51.600;5.718;2023-05-12T05:03:08;101290.34;;;13.12;100.00
48053;BME280;33824;51.600;5.718;2023-05-12T05:05:34;101289.16;;;13.14;100.00
48053;BME280;33824;51.600;5.718;2023-05-12T05:07:59;101303.84;;;13.18;100.00
48053;BME280;33824;51.600;5.718;2023-05-12T05:10:25;101306.63;;;13.25;100.00
48053;BME280;33824;51.600;5.718;2023-05-12T05:12:51;101308.31;;;13.26;100.00
48053;BME280;33824;51.600;5.718;2023-05-12T05:15:16;101308.25;;;13.34;100.00
48053;BME280;33824;51.600;5.718;2023-05-12T05:17:42;101318.22;;;13.40;100.00
48053;BME280;33824;51.600;5.718;2023-05-12T05:20:08;101314.38;;;13.42;100.00
48053;BME280;33824;51.600;5.718;2023-05-12T05:22:35;101323.97;;;13.52;100.00
48053;BME280;33824;51.600;5.718;2023-05-12T05:25:00;101321.97;;;13.54;100.00
48053;BME280;33824;51.600;5.718;2023-05-12T05:27:26;101319.75;;;13.57;100.00
48053;BME280;33824;51.600;5.718;2023-05-12T05:29:52;101331.78;;;13.61;100.00
48053;BME280;33824;51.600;5.718;2023-05-12T05:32:18;101323.66;;;13.69;100.00
48053;BME280;33824;51.600;5.718;2023-05-12T05:34:44;101327.63;;;13.73;100.00
48053;BME280;33824;51.600;5.718;2023-05-12T05:37:09;101328.56;;;13.80;100.00
48053;BME280;33824;51.600;5.718;2023-05-12T05:39:35;101322.28;;;13.88;100.00
48053;BME280;33824;51.600;5.718;2023-05-12T05:42:01;101336.72;;;14.02;100.00
48053;BME280;33824;51.600;5.718;2023-05-12T05:44:26;101341.31;;;14.08;100.00
48053;BME280;33824;51.600;5.718;2023-05-12T05:46:52;101349.84;;;14.26;100.00
48053;BME280;33824;51.600;5.718;2023-05-12T05:49:17;101346.06;;;14.35;100.00
48053;BME280;33824;51.600;5.718;2023-05-12T05:51:43;101350.47;;;14.57;100.00
48053;BME280;33824;51.600;5.718;2023-05-12T05:54:09;101358.53;;;14.72;100.00
48053;BME280;33824;51.600;5.718;2023-05-12T05:56:35;101356.38;;;14.82;100.00
48053;BME280;33824;51.600;5.718;2023-05-12T05:59:01;101357.16;;;14.97;100.00
48053;BME280;33824;51.600;5.718;2023-05-12T06:01:29;101366.03;;;14.98;100.00
48053;BME280;33824;51.600;5.718;2023-05-12T06:03:55;101368.16;;;15.23;100.00
48053;BME280;33824;51.600;5.718;2023-05-12T06:06:20;101361.56;;;15.26;100.00
48053;BME280;33824;51.600;5.718;2023-05-12T06:08:46;101369.44;;;15.27;100.00
48053;BME280;33824;51.600;5.718;2023-05-12T06:11:12;101371.34;;;15.33;100.00
48053;BME280;33824;51.600;5.718;2023-05-12T06:13:37;101385.31;;;15.44;100.00
48053;BME280;33824;51.600;5.718;2023-05-12T06:16:05;101386.06;;;15.52;100.00
48053;BME280;33824;51.600;5.718;2023-05-12T06:18:31;101395.19;;;15.58;100.00
48053;BME280;33824;51.600;5.718;2023-05-12T06:21:02;101390.69;;;15.44;100.00
48053;BME280;33824;51.600;5.718;2023-05-12T06:23:28;101393.59;;;15.63;100.00
48053;BME280;33824;51.600;5.718;2023-05-12T06:25:54;101397.47;;;15.61;100.00
48053;BME280;33824;51.600;5.718;2023-05-12T06:28:19;101405.09;;;15.57;100.00
48053;BME280;33824;51.600;5.718;2023-05-12T06:30:46;101404.19;;;15.71;100.00
48053;BME280;33824;51.600;5.718;2023-05-12T06:33:12;101412.72;;;15.75;100.00
48053;BME280;33824;51.600;5.718;2023-05-12T06:35:37;101409.00;;;15.76;100.00
48053;BME280;33824;51.600;5.718;2023-05-12T06:38:03;101414.44;;;15.82;100.00
48053;BME280;33824;51.600;5.718;2023-05-12T06:40:28;101421.84;;;15.80;100.00
48053;BME280;33824;51.600;5.718;2023-05-12T06:42:54;101426.41;;;15.80;100.00
48053;BME280;33824;51.600;5.718;2023-05-12T06:45:20;101418.38;;;15.87;100.00
48053;BME280;33824;51.600;5.718;2023-05-12T06:47:47;101414.72;;;15.94;100.00
48053;BME280;33824;51.600;5.718;2023-05-12T06:50:13;101426.69;;;16.13;100.00
48053;BME280;33824;51.600;5.718;2023-05-12T06:52:42;101436.97;;;16.09;100.00
48053;BME280;33824;51.600;5.718;2023-05-12T06:55:08;101436.03;;;16.17;100.00
48053;BME280;33824;51.600;5.718;2023-05-12T06:57:33;101435.72;;;16.05;100.00
48053;BME280;33824;51.600;5.718;2023-05-12T06:59:58;101440.94;;;16.13;100.00
48053;BME280;33824;51.600;5.718;2023-05-12T07:02:25;101445.59;;;16.26;100.00
48053;BME280;33824;51.600;5.718;2023-05-12T07:04:50;101444.09;;;16.17;100.00
48053;BME280;33824;51.600;5.718;2023-05-12T07:07:16;101446.44;;;16.26;100.00
48053;BME280;33824;51.600;5.718;2023-05-12T07:09:41;101445.44;;;16.34;100.00
48053;BME280;33824;51.600;5.718;2023-05-12T07:12:07;101443.88;;;16.46;100.00
48053;BME280;33824;51.600;5.718;2023-05-12T07:14:33;101441.34;;;16.38;100.00
48053;BME280;33824;51.600;5.718;2023-05-12T07:16:59;101445.31;;;16.49;100.00
48053;BME280;33824;51.600;5.718;2023-05-12T07:19:24;101444.38;;;16.56;100.00
48053;BME280;33824;51.600;5.718;2023-05-12T07:21:50;101430.31;;;16.61;100.00
48053;BME280;33824;51.600;5.718;2023-05-12T07:24:15;101448.25;;;16.54;99.72
48053;BME280;33824;51.600;5.718;2023-05-12T07:26:41;101448.69;;;16.92;100.00
48053;BME280;33824;51.600;5.718;2023-05-12T07:29:07;101456.19;;;17.03;99.13
48053;BME280;33824;51.600;5.718;2023-05-12T07:31:37;101444.16;;;16.92;99.58
48053;BME280;33824;51.600;5.718;2023-05-12T07:34:02;101454.09;;;16.98;99.21
48053;BME280;33824;51.600;5.718;2023-05-12T07:36:28;101456.50;;;16.80;97.65
48053;BME280;33824;51.600;5.718;2023-05-12T07:38:54;101451.44;;;17.05;96.70
48053;BME280;33824;51.600;5.718;2023-05-12T07:41:20;101452.31;;;17.18;96.39
48053;BME280;33824;51.600;5.718;2023-05-12T07:43:45;101449.56;;;17.05;96.09
48053;BME280;33824;51.600;5.718;2023-05-12T07:46:11;101443.16;;;17.13;95.56
48053;BME280;33824;51.600;5.718;2023-05-12T07:48:37;101440.53;;;17.26;96.21
48053;BME280;33824;51.600;5.718;2023-05-12T07:51:05;101450.66;;;17.17;94.53
48053;BME280;33824;51.600;5.718;2023-05-12T07:53:31;101456.28;;;17.29;94.57
48053;BME280;33824;51.600;5.718;2023-05-12T07:55:57;101452.25;;;17.66;94.61
48053;BME280;33824;51.600;5.718;2023-05-12T07:58:22;101461.72;;;17.42;92.70
48053;BME280;33824;51.600;5.718;2023-05-12T08:00:48;101451.97;;;17.35;92.01
48053;BME280;33824;51.600;5.718;2023-05-12T08:03:13;101449.91;;;17.50;91.56
48053;BME280;33824;51.600;5.718;2023-05-12T08:05:41;101455.75;;;17.53;90.63
48053;BME280;33824;51.600;5.718;2023-05-12T08:08:07;101469.91;;;17.75;90.67
48053;BME280;33824;51.600;5.718;2023-05-12T08:10:40;101462.84;;;17.61;87.09
48053;BME280;33824;51.600;5.718;2023-05-12T08:13:06;101467.34;;;17.54;87.04
48053;BME280;33824;51.600;5.718;2023-05-12T08:15:31;101481.09;;;17.79;88.28
48053;BME280;33824;51.600;5.718;2023-05-12T08:17:57;101487.94;;;17.74;87.09
48053;BME280;33824;51.600;5.718;2023-05-12T08:20:23;101478.41;;;17.79;87.55
48053;BME280;33824;51.600;5.718;2023-05-12T08:22:48;101484.63;;;17.79;86.16
48053;BME280;33824;51.600;5.718;2023-05-12T08:25:15;101482.34;;;17.83;85.90
48053;BME280;33824;51.600;5.718;2023-05-12T08:27:40;101487.13;;;17.87;85.71
48053;BME280;33824;51.600;5.718;2023-05-12T08:30:07;101482.78;;;17.93;85.75
48053;BME280;33824;51.600;5.718;2023-05-12T08:32:36;101485.69;;;17.98;84.68
48053;BME280;33824;51.600;5.718;2023-05-12T08:35:03;101484.22;;;18.15;85.25
48053;BME280;33824;51.600;5.718;2023-05-12T08:37:28;101484.47;;;18.07;85.55
48053;BME280;33824;51.600;5.718;2023-05-12T08:39:55;101493.78;;;18.04;85.92
48053;BME280;33824;51.600;5.718;2023-05-12T08:42:42;101498.34;;;17.97;82.64
48053;BME280;33824;51.600;5.718;2023-05-12T08:45:10;101485.88;;;18.16;84.29
48053;BME280;33824;51.600;5.718;2023-05-12T08:47:36;101492.53;;;18.33;84.78
48053;BME280;33824;51.600;5.718;2023-05-12T08:50:03;101497.53;;;18.36;83.11
48053;BME280;33824;51.600;5.718;2023-05-12T08:52:31;101492.09;;;18.76;82.89
48053;BME280;33824;51.600;5.718;2023-05-12T08:54:58;101497.19;;;19.03;81.58
48053;BME280;33824;51.600;5.718;2023-05-12T08:57:24;101495.75;;;19.01;81.29
48053;BME280;33824;51.600;5.718;2023-05-12T08:59:53;101504.69;;;19.01;81.12
48053;BME280;33824;51.600;5.718;2023-05-12T09:02:20;101493.03;;;19.01;80.67
48053;BME280;33824;51.600;5.718;2023-05-12T09:04:47;101494.28;;;19.05;80.26
48053;BME280;33824;51.600;5.718;2023-05-12T09:07:13;101501.38;;;18.93;79.94
48053;BME280;33824;51.600;5.718;2023-05-12T09:09:43;101500.06;;;19.08;80.26
48053;BME280;33824;51.600;5.718;2023-05-12T09:12:11;101498.38;;;19.21;79.47
48053;BME280;33824;51.600;5.718;2023-05-12T09:14:37;101501.63;;;19.36;80.08
48053;BME280;33824;51.600;5.718;2023-05-12T09:17:05;101497.69;;;19.25;79.21
48053;BME280;33824;51.600;5.718;2023-05-12T09:19:31;101505.84;;;19.18;78.61
48053;BME280;33824;51.600;5.718;2023-05-12T09:21:57;101506.19;;;19.35;80.03
48053;BME280;33824;51.600;5.718;2023-05-12T09:24:36;101504.44;;;19.03;75.17
48053;BME280;33824;51.600;5.718;2023-05-12T09:27:02;101496.00;;;18.80;76.58
48053;BME280;33824;51.600;5.718;2023-05-12T09:29:28;101508.06;;;18.77;78.25
48053;BME280;33824;51.600;5.718;2023-05-12T09:31:55;101484.16;;;18.81;76.97
48053;BME280;33824;51.600;5.718;2023-05-12T09:34:34;101513.09;;;18.67;77.92
48053;BME280;33824;51.600;5.718;2023-05-12T09:37:04;101512.84;;;18.82;75.80
48053;BME280;33824;51.600;5.718;2023-05-12T09:39:31;101517.16;;;18.96;75.84
48053;BME280;33824;51.600;5.718;2023-05-12T09:41:56;101518.16;;;19.08;76.83
48053;BME280;33824;51.600;5.718;2023-05-12T09:44:23;101517.53;;;19.12;76.21
48053;BME280;33824;51.600;5.718;2023-05-12T09:46:49;101521.88;;;19.20;76.42
48053;BME280;33824;51.600;5.718;2023-05-12T09:49:20;101524.59;;;19.07;74.12
48053;BME280;33824;51.600;5.718;2023-05-12T09:51:46;101518.28;;;19.26;76.02
48053;BME280;33824;51.600;5.718;2023-05-12T09:54:23;101530.19;;;19.18;71.01
48053;BME280;33824;51.600;5.718;2023-05-12T09:56:51;101535.16;;;19.28;74.19
48053;BME280;33824;51.600;5.718;2023-05-12T09:59:18;101530.94;;;19.45;74.24
48053;BME280;33824;51.600;5.718;2023-05-12T10:01:45;101528.22;;;19.39;72.38
48053;BME280;33824;51.600;5.718;2023-05-12T10:04:10;101536.38;;;19.32;72.65
48053;BME280;33824;51.600;5.718;2023-05-12T10:06:40;101529.56;;;19.16;72.22
48053;BME280;33824;51.600;5.718;2023-05-12T10:09:31;101530.75;;;19.34;72.65
48053;BME280;33824;51.600;5.718;2023-05-12T10:12:01;101525.13;;;19.42;71.60
48053;BME280;33824;51.600;5.718;2023-05-12T10:14:28;101531.91;;;19.57;72.35
48053;BME280;33824;51.600;5.718;2023-05-12T10:16:58;101530.00;;;19.64;73.83
48053;BME280;33824;51.600;5.718;2023-05-12T10:19:24;101527.47;;;19.70;73.32
48053;BME280;33824;51.600;5.718;2023-05-12T10:21:50;101525.34;;;19.78;72.88
48053;BME280;33824;51.600;5.718;2023-05-12T10:24:16;101532.41;;;19.79;72.06
48053;BME280;33824;51.600;5.718;2023-05-12T10:26:42;101528.16;;;19.90;71.80
48053;BME280;33824;51.600;5.718;2023-05-12T10:29:09;101535.09;;;19.79;70.94
48053;BME280;33824;51.600;5.718;2023-05-12T10:31:36;101537.41;;;19.76;72.65
48053;BME280;33824;51.600;5.718;2023-05-12T10:34:03;101528.69;;;19.74;71.57
48053;BME280;33824;51.600;5.718;2023-05-12T10:36:29;101540.78;;;19.71;72.28
48053;BME280;33824;51.600;5.718;2023-05-12T10:39:03;101536.84;;;19.67;72.34
48053;BME280;33824;51.600;5.718;2023-05-12T10:41:32;101549.03;;;19.83;72.05
48053;BME280;33824;51.600;5.718;2023-05-12T10:43:57;101536.91;;;19.92;70.54
48053;BME280;33824;51.600;5.718;2023-05-12T10:46:23;101542.66;;;19.71;69.89
48053;BME280;33824;51.600;5.718;2023-05-12T10:48:57;101550.03;;;19.88;71.92
48053;BME280;33824;51.600;5.718;2023-05-12T10:51:28;101536.84;;;19.98;70.86
48053;BME280;33824;51.600;5.718;2023-05-12T10:53:59;101549.03;;;19.83;68.96
48053;BME280;33824;51.600;5.718;2023-05-12T10:56:28;101550.38;;;19.98;69.22
48053;BME280;33824;51.600;5.718;2023-05-12T10:59:16;101550.44;;;19.92;70.07
48053;BME280;33824;51.600;5.718;2023-05-12T11:02:12;101554.19;;;19.91;71.57
48053;BME280;33824;51.600;5.718;2023-05-12T11:07:10;101559.97;;;20.01;71.15
48053;BME280;33824;51.600;5.718;2023-05-12T11:09:39;101548.50;;;19.99;68.54
48053;BME280;33824;51.600;5.718;2023-05-12T11:12:06;101556.25;;;19.95;70.16
48053;BME280;33824;51.600;5.718;2023-05-12T11:14:36;101553.00;;;20.11;68.95
48053;BME280;33824;51.600;5.718;2023-05-12T11:17:03;101562.38;;;20.09;67.87
48053;BME280;33824;51.600;5.718;2023-05-12T11:19:29;101559.53;;;19.97;67.02
48053;BME280;33824;51.600;5.718;2023-05-12T11:21:56;101568.59;;;19.85;66.88
48053;BME280;33824;51.600;5.718;2023-05-12T11:24:22;101561.13;;;19.80;67.84
48053;BME280;33824;51.600;5.718;2023-05-12T11:26:48;101564.72;;;19.74;68.33
48053;BME280;33824;51.600;5.718;2023-05-12T11:29:18;101570.38;;;19.66;68.72
48053;BME280;33824;51.600;5.718;2023-05-12T11:31:51;101557.53;;;19.55;66.81
48053;BME280;33824;51.600;5.718;2023-05-12T11:34:22;101575.03;;;19.46;68.73
48053;BME280;33824;51.600;5.718;2023-05-12T11:36:50;101579.59;;;19.45;67.40
48053;BME280;33824;51.600;5.718;2023-05-12T11:39:17;101571.81;;;19.69;67.12
48053;BME280;33824;51.600;5.718;2023-05-12T11:41:45;101570.47;;;19.84;67.61
48053;BME280;33824;51.600;5.718;2023-05-12T11:44:18;101573.25;;;20.02;67.04
48053;BME280;33824;51.600;5.718;2023-05-12T11:49:19;101575.78;;;20.35;67.32
48053;BME280;33824;51.600;5.718;2023-05-12T11:51:44;101576.03;;;20.77;67.29
48053;BME280;33824;51.600;5.718;2023-05-12T11:54:10;101563.19;;;21.08;65.92
48053;BME280;33824;51.600;5.718;2023-05-12T11:56:36;101565.91;;;21.27;66.17
48053;BME280;33824;51.600;5.718;2023-05-12T11:59:01;101572.09;;;21.52;65.41
48053;BME280;33824;51.600;5.718;2023-05-12T12:01:27;101569.78;;;21.67;65.31
48053;BME280;33824;51.600;5.718;2023-05-12T12:03:54;101565.06;;;21.92;63.70
48053;BME280;33824;51.600;5.718;2023-05-12T12:06:20;101564.38;;;21.67;62.21
48053;BME280;33824;51.600;5.718;2023-05-12T12:08:57;101570.84;;;21.66;62.06
48053;BME280;33824;51.600;5.718;2023-05-12T12:11:24;101571.78;;;21.90;63.36
48053;BME280;33824;51.600;5.718;2023-05-12T12:13:56;101569.38;;;21.82;61.91
48053;BME280;33824;51.600;5.718;2023-05-12T12:16:23;101576.66;;;21.99;63.56
48053;BME280;33824;51.600;5.718;2023-05-12T12:18:49;101574.25;;;22.21;62.92
48053;BME280;33824;51.600;5.718;2023-05-12T12:21:14;101572.63;;;22.43;62.82
48053;BME280;33824;51.600;5.718;2023-05-12T12:23:40;101579.00;;;22.37;61.44
48053;BME280;33824;51.600;5.718;2023-05-12T12:26:05;101582.19;;;22.34;62.73
48053;BME280;33824;51.600;5.718;2023-05-12T12:28:31;101595.88;;;22.28;62.18
48053;BME280;33824;51.600;5.718;2023-05-12T12:30:57;101590.31;;;22.23;60.67
48053;BME280;33824;51.600;5.718;2023-05-12T12:33:23;101581.34;;;22.34;61.46
48053;BME280;33824;51.600;5.718;2023-05-12T12:35:48;101593.09;;;22.05;60.84
48053;BME280;33824;51.600;5.718;2023-05-12T12:38:14;101595.25;;;22.26;60.96
48053;BME280;33824;51.600;5.718;2023-05-12T12:40:39;101592.19;;;22.22;60.23
48053;BME280;33824;51.600;5.718;2023-05-12T12:43:05;101598.94;;;22.20;60.36
48053;BME280;33824;51.600;5.718;2023-05-12T12:45:31;101580.53;;;22.33;61.53